Terminal Aerodrome Forecast
Issued by NWS Boston, MA

Home | Current Version | Previous Version | Text Only | Print | Product List | Glossary Off
Versions: 1 2 3 4 5 6 7 8 9 10 11 12 13 14 15 16 17 18 19 20 21 22 23 24
000 FTUS41 KBOX 051123 TAFBOS TAF KBOS 051123Z 0512/0618 03013KT 6SM -DZ BR OVC008 FM051900 03013G29KT 3SM -RA BR OVC008 FM060500 35009KT 6SM BR VCSH BKN015 FM061200 01006KT P6SM BKN020 FM061600 05007KT P6SM BKN035=

USA.gov is the U.S. government's official web portal to all federal, state and local government web resources and services.